createdAt,value
2023-05-09T00:00:56.287Z,3.30
2023-05-09T00:03:23.368Z,3.05
2023-05-09T00:05:51.103Z,3.08
2023-05-09T00:08:18.277Z,3.20
2023-05-09T00:10:45.332Z,3.20
2023-05-09T00:13:12.389Z,3.50
2023-05-09T00:15:39.502Z,3.00
2023-05-09T00:18:06.784Z,2.92
2023-05-09T00:20:34.213Z,3.60
2023-05-09T00:23:01.239Z,3.25
2023-05-09T00:25:28.283Z,3.33
2023-05-09T00:27:55.404Z,3.40
2023-05-09T00:30:22.468Z,3.22
2023-05-09T00:32:49.589Z,3.25
2023-05-09T00:35:17.023Z,3.40
2023-05-09T00:37:44.434Z,3.20
2023-05-09T00:40:11.915Z,3.10
2023-05-09T00:42:39.037Z,3.33
2023-05-09T00:45:07.150Z,3.20
2023-05-09T00:47:35.031Z,3.33
2023-05-09T00:50:02.706Z,2.95
2023-05-09T00:52:30.739Z,3.40
2023-05-09T00:54:58.563Z,3.13
2023-05-09T00:57:25.631Z,3.58
2023-05-09T00:59:52.970Z,3.40
2023-05-09T01:02:20.705Z,3.30
2023-05-09T01:04:48.476Z,3.30
2023-05-09T01:07:52.989Z,3.20
2023-05-09T01:10:40.670Z,3.28
2023-05-09T01:13:20.049Z,3.03
2023-05-09T01:15:51.898Z,3.22
2023-05-09T01:18:39.626Z,3.38
2023-05-09T01:21:15.952Z,3.30
2023-05-09T01:23:54.882Z,3.03
2023-05-09T01:26:43.116Z,3.22
2023-05-09T01:29:31.996Z,3.28
2023-05-09T01:32:02.804Z,2.97
2023-05-09T01:34:32.008Z,3.35
2023-05-09T01:37:01.252Z,3.08
2023-05-09T01:39:31.759Z,3.00
2023-05-09T01:42:02.077Z,2.90
2023-05-09T01:44:37.351Z,3.20
2023-05-09T01:47:07.752Z,2.90
2023-05-09T01:49:37.648Z,3.05
2023-05-09T01:52:08.318Z,2.90
2023-05-09T01:54:36.598Z,2.97
2023-05-09T01:57:04.885Z,3.17
2023-05-09T01:59:34.768Z,3.30
2023-05-09T02:02:03.878Z,2.83
2023-05-09T02:04:32.370Z,3.08
2023-05-09T02:07:00.660Z,3.23
2023-05-09T02:09:27.802Z,2.70
2023-05-09T02:11:54.868Z,3.27
2023-05-09T02:14:22.219Z,2.97
2023-05-09T02:16:50.075Z,2.97
2023-05-09T02:19:17.593Z,2.70
2023-05-09T02:21:44.868Z,3.20
2023-05-09T02:24:12.013Z,3.00
2023-05-09T02:26:40.518Z,3.00
2023-05-09T02:29:08.786Z,2.80
2023-05-09T02:31:37.518Z,2.90
2023-05-09T02:34:05.576Z,3.00
2023-05-09T02:36:35.562Z,3.00
2023-05-09T02:39:02.848Z,2.72
2023-05-09T02:41:30.881Z,2.60
2023-05-09T02:43:57.938Z,2.70
2023-05-09T02:46:25.458Z,3.03
2023-05-09T02:48:53.723Z,2.87
2023-05-09T02:51:20.847Z,2.80
2023-05-09T02:53:47.897Z,2.70
2023-05-09T02:56:15.046Z,2.90
2023-05-09T02:58:42.161Z,2.90
2023-05-09T03:01:09.241Z,2.53
2023-05-09T03:03:38.148Z,3.00
2023-05-09T03:06:06.313Z,2.70
2023-05-09T03:08:34.820Z,2.50
2023-05-09T03:11:01.995Z,2.70
2023-05-09T03:13:29.432Z,2.67
2023-05-09T03:15:57.902Z,2.90
2023-05-09T03:18:25.064Z,2.80
2023-05-09T03:20:52.493Z,2.87
2023-05-09T03:23:19.804Z,3.03
2023-05-09T03:25:46.850Z,3.00
2023-05-09T03:28:14.364Z,2.80
2023-05-09T03:30:41.486Z,2.67
2023-05-09T03:33:12.122Z,2.77
2023-05-09T03:35:39.291Z,2.67
2023-05-09T03:38:07.953Z,2.80
2023-05-09T03:40:35.010Z,3.17
2023-05-09T03:43:07.465Z,3.00
2023-05-09T03:45:36.247Z,2.97
2023-05-09T03:48:05.403Z,3.00
2023-05-09T03:50:32.573Z,2.90
2023-05-09T03:52:59.923Z,3.13
2023-05-09T03:55:27.648Z,2.83
2023-05-09T03:57:55.370Z,2.73
2023-05-09T04:00:22.861Z,2.70
2023-05-09T04:03:01.210Z,2.53
2023-05-09T04:05:35.422Z,3.13
2023-05-09T04:08:04.784Z,2.70
2023-05-09T04:10:32.824Z,2.87
2023-05-09T04:13:00.247Z,2.90
2023-05-09T04:15:27.376Z,2.90
2023-05-09T04:17:55.806Z,2.73
2023-05-09T04:20:23.016Z,2.70
2023-05-09T04:22:50.227Z,2.77
2023-05-09T04:25:20.213Z,2.80
2023-05-09T04:27:48.301Z,2.73
2023-05-09T04:30:16.090Z,2.80
2023-05-09T04:32:46.496Z,2.90
2023-05-09T04:35:14.327Z,2.87
2023-05-09T04:37:45.749Z,2.90
2023-05-09T04:40:13.371Z,2.80
2023-05-09T04:42:46.834Z,2.60
2023-05-09T04:45:14.477Z,2.90
2023-05-09T04:47:41.679Z,2.60
2023-05-09T04:50:09.250Z,2.60
2023-05-09T04:52:36.279Z,2.83
2023-05-09T04:55:03.630Z,2.60
2023-05-09T04:57:36.163Z,2.80
2023-05-09T05:00:07.174Z,2.80
2023-05-09T05:02:35.547Z,3.00
2023-05-09T05:05:11.631Z,2.87
2023-05-09T05:07:41.926Z,2.97
2023-05-09T05:10:11.158Z,2.97
2023-05-09T05:12:40.601Z,3.07
2023-05-09T05:15:12.157Z,3.43
2023-05-09T05:17:40.057Z,2.87
2023-05-09T05:20:10.676Z,3.10
2023-05-09T05:22:42.060Z,2.77
2023-05-09T05:25:09.885Z,2.83
2023-05-09T05:27:38.772Z,2.60
2023-05-09T05:30:07.709Z,3.00
2023-05-09T05:32:35.117Z,2.87
2023-05-09T05:35:03.696Z,2.57
2023-05-09T05:37:31.971Z,2.80
2023-05-09T05:39:59.076Z,2.93
2023-05-09T05:42:26.341Z,2.80
2023-05-09T05:44:53.453Z,2.90
2023-05-09T05:47:20.574Z,2.93
2023-05-09T05:49:48.207Z,3.03
2023-05-09T05:52:15.298Z,2.70
2023-05-09T05:54:44.497Z,2.73
2023-05-09T05:57:11.741Z,2.67
2023-05-09T05:59:39.294Z,2.87
2023-05-09T06:02:07.118Z,2.97
2023-05-09T06:04:35.439Z,2.93
2023-05-09T06:07:02.558Z,2.63
2023-05-09T06:09:29.616Z,3.00
2023-05-09T06:11:56.696Z,3.10
2023-05-09T06:14:23.747Z,2.83
2023-05-09T06:16:51.926Z,2.77
2023-05-09T06:19:19.066Z,2.97
2023-05-09T06:21:47.559Z,3.20
2023-05-09T06:24:23.819Z,2.70
2023-05-09T06:26:59.140Z,3.10
2023-05-09T06:29:26.192Z,3.10
2023-05-09T06:31:53.292Z,3.10
2023-05-09T06:34:20.529Z,3.07
2023-05-09T06:36:47.592Z,3.10
2023-05-09T06:39:14.692Z,3.00
2023-05-09T06:41:41.887Z,3.00
2023-05-09T06:44:08.894Z,2.80
2023-05-09T06:46:36.002Z,2.53
2023-05-09T06:49:03.126Z,2.80
2023-05-09T06:51:30.239Z,2.93
2023-05-09T06:53:57.408Z,2.87
2023-05-09T06:56:25.970Z,2.87
2023-05-09T06:58:53.513Z,2.90
2023-05-09T07:01:20.753Z,2.87
2023-05-09T07:03:48.146Z,2.90
2023-05-09T07:06:15.193Z,2.70
2023-05-09T07:08:42.234Z,2.53
2023-05-09T07:11:09.331Z,2.73
2023-05-09T07:13:36.646Z,2.77
2023-05-09T07:16:04.047Z,2.83
2023-05-09T07:18:31.223Z,2.60
2023-05-09T07:20:58.312Z,2.70
2023-05-09T07:23:26.157Z,2.70
2023-05-09T07:25:57.946Z,2.60
2023-05-09T07:28:26.070Z,2.80
2023-05-09T07:30:55.589Z,2.60
2023-05-09T07:33:22.934Z,2.73
2023-05-09T07:35:50.466Z,2.60
2023-05-09T07:38:17.505Z,2.43
2023-05-09T07:40:44.587Z,2.60
2023-05-09T07:43:11.616Z,2.83
2023-05-09T07:45:38.671Z,3.00
2023-05-09T07:48:06.191Z,3.00
2023-05-09T07:50:33.713Z,2.70
2023-05-09T07:53:00.748Z,2.87
2023-05-09T07:55:27.753Z,2.60
2023-05-09T07:57:54.942Z,2.60
2023-05-09T08:00:24.002Z,2.63
2023-05-09T08:02:54.388Z,2.70
2023-05-09T08:05:21.601Z,2.57
2023-05-09T08:07:48.742Z,2.40
2023-05-09T08:10:16.637Z,2.40
2023-05-09T08:12:43.765Z,2.60
2023-05-09T08:15:11.408Z,2.53
2023-05-09T08:17:38.453Z,2.63
2023-05-09T08:20:06.122Z,2.50
2023-05-09T08:22:33.131Z,2.70
2023-05-09T08:25:00.195Z,2.67
2023-05-09T08:27:27.574Z,2.50
2023-05-09T08:29:54.650Z,2.57
2023-05-09T08:32:21.685Z,2.25
2023-05-09T08:34:48.839Z,2.20
2023-05-09T08:37:15.861Z,2.50
2023-05-09T08:39:43.095Z,2.15
2023-05-09T08:42:10.583Z,2.25
2023-05-09T08:44:37.689Z,2.22
2023-05-09T08:47:06.424Z,2.30
2023-05-09T08:49:35.192Z,2.42
2023-05-09T08:52:02.469Z,2.25
2023-05-09T08:54:30.207Z,1.77
2023-05-09T08:56:57.911Z,2.03
2023-05-09T08:59:26.551Z,2.42
2023-05-09T09:01:54.786Z,2.33
2023-05-09T09:04:22.979Z,2.10
2023-05-09T09:06:51.428Z,2.05
2023-05-09T09:09:20.345Z,2.20
2023-05-09T09:11:48.045Z,2.00
2023-05-09T09:14:22.966Z,2.00
2023-05-09T09:16:52.033Z,2.20
2023-05-09T09:19:19.997Z,2.15
2023-05-09T09:21:49.816Z,2.08
2023-05-09T09:24:22.334Z,1.90
2023-05-09T09:26:51.524Z,1.60
2023-05-09T09:29:20.688Z,1.77
2023-05-09T09:31:52.314Z,1.80
2023-05-09T09:34:23.745Z,1.90
2023-05-09T09:36:51.086Z,1.90
2023-05-09T09:39:18.183Z,1.90
2023-05-09T09:41:45.424Z,1.60
2023-05-09T09:44:22.967Z,1.58
2023-05-09T09:46:51.675Z,1.60
2023-05-09T09:49:21.289Z,1.60
2023-05-09T09:51:58.915Z,1.60
2023-05-09T09:54:29.449Z,1.50
2023-05-09T09:56:56.986Z,1.60
2023-05-09T09:59:26.142Z,1.40
2023-05-09T10:02:07.515Z,1.40
2023-05-09T10:04:38.872Z,1.50
2023-05-09T10:07:07.665Z,1.40
2023-05-09T10:09:35.898Z,1.20
2023-05-09T10:12:04.802Z,1.50
2023-05-09T10:14:35.101Z,1.42
2023-05-09T10:17:05.068Z,1.33
2023-05-09T10:19:33.300Z,1.40
2023-05-09T10:22:12.037Z,1.50
2023-05-09T10:24:47.568Z,1.42
2023-05-09T10:27:18.093Z,1.33
2023-05-09T10:29:47.123Z,1.52
2023-05-09T10:32:36.090Z,1.40
2023-05-09T10:35:07.024Z,1.33
2023-05-09T10:37:35.445Z,1.40
2023-05-09T10:40:05.214Z,1.30
2023-05-09T10:42:32.498Z,1.40
2023-05-09T10:44:59.794Z,1.52
2023-05-09T10:47:28.083Z,1.52
2023-05-09T10:49:56.178Z,1.60
2023-05-09T10:52:23.285Z,1.60
2023-05-09T10:55:06.786Z,1.73
2023-05-09T10:57:39.117Z,1.58
2023-05-09T11:00:07.562Z,1.60
2023-05-09T11:02:35.006Z,1.58
2023-05-09T11:05:14.731Z,1.80
2023-05-09T11:07:43.447Z,1.50
2023-05-09T11:10:19.412Z,1.90
2023-05-09T11:12:59.299Z,1.55
2023-05-09T11:15:30.079Z,1.60
2023-05-09T11:18:12.979Z,1.45
2023-05-09T11:20:44.748Z,1.75
2023-05-09T11:23:12.181Z,1.67
2023-05-09T11:25:42.589Z,1.60
2023-05-09T11:28:11.889Z,1.58
2023-05-09T11:30:41.755Z,1.60
2023-05-09T11:33:27.398Z,2.00
2023-05-09T11:36:20.198Z,1.70
2023-05-09T11:38:48.053Z,1.52
2023-05-09T11:41:16.168Z,1.65
2023-05-09T11:43:46.510Z,1.63
2023-05-09T11:46:13.618Z,1.40
2023-05-09T11:48:42.308Z,1.63
2023-05-09T11:51:18.317Z,1.60
2023-05-09T11:53:49.770Z,1.55
2023-05-09T11:56:17.555Z,1.73
2023-05-09T11:58:44.634Z,1.85
2023-05-09T12:01:12.845Z,1.95
2023-05-09T12:03:46.036Z,1.67
2023-05-09T12:06:22.924Z,1.67
2023-05-09T12:08:50.069Z,1.70
2023-05-09T12:11:17.362Z,1.52
2023-05-09T12:13:48.562Z,1.63
2023-05-09T12:16:16.983Z,1.50
2023-05-09T12:18:51.778Z,1.48
2023-05-09T12:21:20.057Z,1.40
2023-05-09T12:23:50.721Z,1.50
2023-05-09T12:26:18.852Z,1.48
2023-05-09T12:28:46.248Z,1.70
2023-05-09T12:31:13.954Z,1.60
2023-05-09T12:33:41.162Z,1.52
2023-05-09T12:36:11.433Z,1.70
2023-05-09T12:38:39.071Z,1.83
2023-05-09T12:41:22.396Z,1.70
2023-05-09T12:43:58.508Z,1.70
2023-05-09T12:46:25.795Z,1.73
2023-05-09T12:48:52.982Z,1.48
2023-05-09T12:51:21.381Z,1.83
2023-05-09T12:53:49.054Z,1.55
2023-05-09T12:56:18.730Z,1.67
2023-05-09T12:58:56.435Z,1.60
2023-05-09T13:01:28.336Z,1.58
2023-05-09T13:04:06.733Z,1.30
2023-05-09T13:06:36.088Z,1.40
2023-05-09T13:09:06.438Z,1.70
2023-05-09T13:11:33.813Z,1.45
2023-05-09T13:14:03.283Z,1.50
2023-05-09T13:16:30.494Z,1.70
2023-05-09T13:18:57.749Z,1.52
2023-05-09T13:21:25.002Z,1.73
2023-05-09T13:23:52.313Z,1.48
2023-05-09T13:26:19.637Z,1.60
2023-05-09T13:28:46.703Z,1.83
2023-05-09T13:31:13.975Z,1.60
2023-05-09T13:33:41.152Z,1.63
2023-05-09T13:36:08.457Z,1.67
2023-05-09T13:38:38.976Z,1.50
2023-05-09T13:41:06.932Z,1.67
2023-05-09T13:43:34.959Z,1.58
2023-05-09T13:46:02.610Z,1.65
2023-05-09T13:48:29.745Z,1.75
2023-05-09T13:50:57.823Z,1.50
2023-05-09T13:53:24.931Z,1.30
2023-05-09T13:55:52.208Z,1.67
2023-05-09T13:58:19.397Z,1.73
2023-05-09T14:00:46.712Z,1.50
2023-05-09T14:03:13.783Z,1.73
2023-05-09T14:05:40.961Z,1.80
2023-05-09T14:08:08.032Z,1.60
2023-05-09T14:10:35.083Z,1.65
2023-05-09T14:13:02.263Z,1.40
2023-05-09T14:15:30.070Z,1.60
2023-05-09T14:17:57.568Z,1.40
2023-05-09T14:20:24.871Z,1.50
2023-05-09T14:22:52.087Z,1.67
2023-05-09T14:25:19.326Z,1.40
2023-05-09T14:27:46.856Z,1.55
2023-05-09T14:30:14.346Z,1.58
2023-05-09T14:32:41.734Z,1.58
2023-05-09T14:35:09.567Z,1.60
2023-05-09T14:37:37.487Z,1.70
2023-05-09T14:40:05.843Z,1.50
2023-05-09T14:42:33.085Z,1.60
2023-05-09T14:45:00.181Z,1.58
2023-05-09T14:47:27.438Z,1.35
2023-05-09T14:49:54.532Z,1.70
2023-05-09T14:52:21.667Z,1.80
2023-05-09T14:54:48.735Z,1.80
2023-05-09T14:57:15.859Z,1.60
2023-05-09T14:59:42.995Z,1.60
2023-05-09T15:02:10.048Z,1.55
2023-05-09T15:04:37.155Z,1.70
2023-05-09T15:07:06.096Z,1.60
2023-05-09T15:09:47.805Z,1.83
2023-05-09T15:12:15.134Z,1.90
2023-05-09T15:14:42.373Z,1.80
2023-05-09T15:17:09.573Z,1.77
2023-05-09T15:19:39.748Z,1.90
2023-05-09T15:22:08.620Z,1.83
2023-05-09T15:24:35.672Z,1.88
2023-05-09T15:27:02.824Z,1.88
2023-05-09T15:29:29.888Z,1.88
2023-05-09T15:31:57.020Z,1.80
2023-05-09T15:34:24.097Z,1.70
2023-05-09T15:36:51.188Z,1.90
2023-05-09T15:39:18.278Z,1.63
2023-05-09T15:41:45.300Z,1.85
2023-05-09T15:44:12.376Z,1.52
2023-05-09T15:46:39.797Z,1.80
2023-05-09T15:49:06.872Z,1.83
2023-05-09T15:51:34.081Z,1.75
2023-05-09T15:54:01.263Z,2.00
2023-05-09T15:56:28.327Z,1.60
2023-05-09T15:58:55.421Z,1.60
2023-05-09T16:01:22.690Z,1.90
2023-05-09T16:03:49.878Z,1.83
2023-05-09T16:06:17.500Z,1.92
2023-05-09T16:08:46.365Z,1.98
2023-05-09T16:11:13.534Z,1.85
2023-05-09T16:13:40.596Z,1.75
2023-05-09T16:16:07.785Z,1.90
2023-05-09T16:18:34.976Z,1.90
2023-05-09T16:21:02.061Z,1.60
2023-05-09T16:23:29.111Z,1.70
2023-05-09T16:25:56.277Z,2.03
2023-05-09T16:28:23.656Z,1.83
2023-05-09T16:30:54.004Z,1.98
2023-05-09T16:33:21.059Z,1.98
2023-05-09T16:35:48.048Z,2.08
2023-05-09T16:38:15.201Z,1.85
2023-05-09T16:40:42.323Z,2.92
2023-05-09T16:43:09.457Z,2.33
2023-05-09T16:45:36.535Z,1.95
2023-05-09T16:48:03.844Z,1.98
2023-05-09T16:50:30.991Z,2.00
2023-05-09T16:52:58.324Z,2.00
2023-05-09T16:55:28.048Z,1.83
2023-05-09T16:57:55.558Z,2.00
2023-05-09T17:00:23.091Z,2.10
2023-05-09T17:02:50.507Z,2.00
2023-05-09T17:05:17.998Z,2.10
2023-05-09T17:07:45.402Z,1.80
2023-05-09T17:10:12.565Z,2.10
2023-05-09T17:12:39.602Z,2.00
2023-05-09T17:15:07.552Z,2.00
2023-05-09T17:17:34.990Z,2.22
2023-05-09T17:20:02.392Z,2.05
2023-05-09T17:22:29.638Z,1.80
2023-05-09T17:24:57.273Z,2.00
2023-05-09T17:27:24.413Z,2.22
2023-05-09T17:29:51.559Z,2.08
2023-05-09T17:32:18.611Z,2.20
2023-05-09T17:34:45.636Z,1.80
2023-05-09T17:37:13.265Z,2.20
2023-05-09T17:39:42.263Z,2.20
2023-05-09T17:42:09.446Z,2.22
2023-05-09T17:44:36.536Z,2.13
2023-05-09T17:47:04.064Z,2.50
2023-05-09T17:49:31.203Z,2.50
2023-05-09T17:51:58.309Z,2.33
2023-05-09T17:54:25.543Z,2.28
2023-05-09T17:56:56.018Z,2.38
2023-05-09T17:59:23.207Z,2.50
2023-05-09T18:01:50.394Z,2.67
2023-05-09T18:04:17.503Z,3.00
2023-05-09T18:06:44.815Z,2.60
2023-05-09T18:09:11.832Z,2.72
2023-05-09T18:11:38.876Z,2.47
2023-05-09T18:14:06.404Z,2.50
2023-05-09T18:16:36.577Z,2.78
2023-05-09T18:19:03.767Z,2.60
2023-05-09T18:21:32.312Z,2.60
2023-05-09T18:23:59.917Z,2.67
2023-05-09T18:26:28.747Z,2.53
2023-05-09T18:28:55.848Z,2.25
2023-05-09T18:31:23.058Z,2.22
2023-05-09T18:33:50.266Z,2.47
2023-05-09T18:36:17.645Z,2.38
2023-05-09T18:38:44.728Z,2.45
2023-05-09T18:41:13.166Z,2.50
2023-05-09T18:43:45.938Z,2.30
2023-05-09T18:46:17.778Z,2.25
2023-05-09T18:48:46.180Z,2.72
2023-05-09T18:51:13.260Z,2.60
2023-05-09T18:53:40.519Z,2.03
2023-05-09T18:56:07.796Z,2.28
2023-05-09T18:58:37.353Z,2.30
2023-05-09T19:01:04.817Z,2.53
2023-05-09T19:03:31.971Z,2.45
2023-05-09T19:05:59.870Z,2.45
2023-05-09T19:08:27.372Z,2.40
2023-05-09T19:10:54.420Z,2.30
2023-05-09T19:13:21.871Z,2.40
2023-05-09T19:15:49.140Z,2.28
2023-05-09T19:18:16.528Z,2.50
2023-05-09T19:20:43.732Z,2.17
2023-05-09T19:23:12.120Z,2.42
2023-05-09T19:25:39.173Z,2.47
2023-05-09T19:28:06.430Z,2.50
2023-05-09T19:30:33.563Z,2.50
2023-05-09T19:33:00.648Z,2.28
2023-05-09T19:35:27.821Z,2.85
2023-05-09T19:37:54.906Z,2.30
2023-05-09T19:40:22.114Z,2.65
2023-05-09T19:42:49.354Z,2.60
2023-05-09T19:45:16.420Z,2.30
2023-05-09T19:47:43.729Z,2.47
2023-05-09T19:50:11.138Z,2.15
2023-05-09T19:52:38.252Z,2.10
2023-05-09T19:55:06.128Z,2.15
2023-05-09T19:57:33.338Z,2.30
2023-05-09T20:00:00.441Z,2.47
2023-05-09T20:02:27.737Z,2.63
2023-05-09T20:04:54.897Z,2.30
2023-05-09T20:07:21.917Z,2.30
2023-05-09T20:09:48.900Z,2.20
2023-05-09T20:12:15.929Z,2.10
2023-05-09T20:14:44.293Z,2.10
2023-05-09T20:17:11.293Z,2.30
2023-05-09T20:19:38.447Z,2.28
2023-05-09T20:22:06.612Z,2.22
2023-05-09T20:24:33.704Z,2.22
2023-05-09T20:27:02.557Z,2.13
2023-05-09T20:29:29.672Z,1.92
2023-05-09T20:31:56.726Z,1.98
2023-05-09T20:34:24.752Z,2.03
2023-05-09T20:36:55.166Z,2.25
2023-05-09T20:39:23.250Z,2.20
2023-05-09T20:41:51.555Z,2.17
2023-05-09T20:44:19.248Z,2.05
2023-05-09T20:46:46.751Z,2.08
2023-05-09T20:49:14.753Z,2.00
2023-05-09T20:51:41.960Z,2.22
2023-05-09T20:54:09.132Z,2.15
2023-05-09T20:56:36.255Z,2.33
2023-05-09T20:59:04.412Z,2.22
2023-05-09T21:01:35.596Z,2.10
2023-05-09T21:04:06.044Z,2.60
2023-05-09T21:06:33.242Z,2.15
2023-05-09T21:09:00.365Z,2.05
2023-05-09T21:11:27.436Z,2.22
2023-05-09T21:13:54.501Z,2.38
2023-05-09T21:16:22.102Z,2.20
2023-05-09T21:18:49.223Z,2.50
2023-05-09T21:21:16.379Z,2.45
2023-05-09T21:23:43.448Z,2.05
2023-05-09T21:26:10.565Z,2.15
2023-05-09T21:28:37.618Z,2.38
2023-05-09T21:31:04.878Z,2.30
2023-05-09T21:33:31.987Z,2.47
2023-05-09T21:36:02.299Z,2.10
2023-05-09T21:38:29.432Z,2.00
2023-05-09T21:40:56.539Z,2.10
2023-05-09T21:43:23.634Z,2.20
2023-05-09T21:45:50.642Z,2.30
2023-05-09T21:48:17.802Z,2.40
2023-05-09T21:50:46.168Z,2.20
2023-05-09T21:53:13.808Z,2.22
2023-05-09T21:55:41.421Z,2.17
2023-05-09T21:58:08.452Z,2.30
2023-05-09T22:00:35.576Z,2.30
2023-05-09T22:03:02.754Z,2.28
2023-05-09T22:05:29.904Z,2.40
2023-05-09T22:07:57.003Z,2.33
2023-05-09T22:10:24.080Z,2.38
2023-05-09T22:12:51.216Z,2.10
2023-05-09T22:15:18.390Z,2.40
2023-05-09T22:17:45.537Z,2.13
2023-05-09T22:20:13.040Z,2.33
2023-05-09T22:22:40.245Z,2.22
2023-05-09T22:25:07.654Z,2.13
2023-05-09T22:27:34.760Z,2.08
2023-05-09T22:30:03.152Z,2.15
2023-05-09T22:32:30.213Z,2.30
2023-05-09T22:34:57.428Z,2.63
2023-05-09T22:37:24.472Z,2.45
2023-05-09T22:39:51.607Z,2.28
2023-05-09T22:42:18.645Z,2.30
2023-05-09T22:44:47.578Z,2.25
2023-05-09T22:47:14.600Z,2.40
2023-05-09T22:49:42.627Z,2.08
2023-05-09T22:52:10.760Z,2.42
2023-05-09T22:54:37.814Z,2.22
2023-05-09T22:57:04.852Z,2.30
2023-05-09T22:59:32.150Z,2.38
2023-05-09T23:01:59.604Z,2.50
2023-05-09T23:04:26.880Z,2.33
2023-05-09T23:06:54.014Z,2.50
2023-05-09T23:09:21.077Z,2.33
2023-05-09T23:11:48.167Z,2.38
2023-05-09T23:14:15.341Z,2.55
2023-05-09T23:16:42.457Z,2.47
2023-05-09T23:19:09.988Z,2.40
2023-05-09T23:21:37.162Z,2.80
2023-05-09T23:24:04.433Z,2.50
2023-05-09T23:26:31.445Z,2.47
2023-05-09T23:28:58.537Z,2.47
2023-05-09T23:31:25.711Z,2.38
2023-05-09T23:33:52.849Z,2.60
2023-05-09T23:36:19.854Z,2.30
2023-05-09T23:38:46.916Z,2.40
2023-05-09T23:41:14.384Z,2.50
2023-05-09T23:43:42.065Z,1.98
2023-05-09T23:46:09.179Z,2.55
2023-05-09T23:48:36.330Z,2.70
2023-05-09T23:51:03.602Z,2.45
2023-05-09T23:53:35.063Z,2.50
2023-05-09T23:56:02.994Z,2.40
2023-05-09T23:58:30.097Z,2.60
